createdAt,value
2022-10-12T06:16:12.642Z,101463.56
2022-10-12T06:18:40.532Z,101469.62
2022-10-12T06:21:32.029Z,101475.22
2022-10-12T06:23:55.664Z,101476.31
2022-10-12T06:26:23.388Z,101484.53
2022-10-12T06:28:50.862Z,101475.91
2022-10-12T06:31:18.609Z,101474.37
2022-10-12T06:33:46.023Z,101486.06
2022-10-12T06:36:13.393Z,101480.34
2022-10-12T06:38:41.092Z,101485.22
2022-10-12T06:41:08.493Z,101493.72
2022-10-12T06:43:35.916Z,101490.50
2022-10-12T06:46:04.104Z,101493.16
2022-10-12T06:48:34.631Z,101500.38
2022-10-12T06:51:02.041Z,101500.41
2022-10-12T06:53:32.795Z,101490.81
2022-10-12T06:56:00.306Z,101503.41
2022-10-12T06:58:27.803Z,101503.09
2022-10-12T07:00:55.561Z,101506.78
2022-10-12T07:03:24.338Z,101491.72
2022-10-12T07:05:52.633Z,101510.00
2022-10-12T07:09:03.400Z,101513.78
2022-10-12T07:11:30.828Z,101518.63
2022-10-12T07:13:58.640Z,101515.06
2022-10-12T07:16:26.114Z,101519.66
2022-10-12T07:18:53.793Z,101519.03
2022-10-12T07:21:21.533Z,101516.38
2022-10-12T07:23:48.976Z,101515.97
2022-10-12T07:26:16.464Z,101507.34
2022-10-12T07:28:44.603Z,101514.22
2022-10-12T07:31:12.217Z,101505.19
2022-10-12T07:33:39.632Z,101511.72
2022-10-12T07:36:14.246Z,101500.56
2022-10-12T07:38:45.756Z,101506.16
2022-10-12T07:41:14.335Z,101502.78
2022-10-12T07:43:42.601Z,101506.69
2022-10-12T07:46:10.740Z,101504.22
2022-10-12T07:48:40.250Z,101506.12
2022-10-12T07:51:10.605Z,101503.75
2022-10-12T07:53:39.201Z,101511.59
2022-10-12T07:56:14.944Z,101510.47
2022-10-12T07:58:54.267Z,101506.81
2022-10-12T08:01:23.783Z,101505.00
2022-10-12T08:03:52.008Z,101505.41
2022-10-12T08:06:23.192Z,101502.19
2022-10-12T08:08:51.294Z,101505.25
2022-10-12T08:11:20.537Z,101509.88
2022-10-12T08:13:48.521Z,101512.53
2022-10-12T08:16:19.290Z,101507.31
2022-10-12T08:18:47.249Z,101510.38
2022-10-12T08:21:16.334Z,101504.13
2022-10-12T08:23:45.149Z,101515.84
2022-10-12T08:26:13.885Z,101510.53
2022-10-12T08:28:41.808Z,101513.59
2022-10-12T08:31:14.892Z,101512.28
2022-10-12T08:33:42.385Z,101511.22
2022-10-12T08:36:11.299Z,101508.09
2022-10-12T08:38:38.976Z,101505.50
2022-10-12T08:41:44.051Z,101509.72
2022-10-12T08:44:33.073Z,101510.84
2022-10-12T08:47:15.675Z,101506.78
2022-10-12T08:49:49.443Z,101508.06
2022-10-12T08:52:33.685Z,101507.53
2022-10-12T08:55:10.831Z,101500.78
2022-10-12T08:57:38.489Z,101505.28
2022-10-12T09:00:09.924Z,101497.63
2022-10-12T09:03:01.841Z,101492.56
2022-10-12T09:05:50.380Z,101501.75
2022-10-12T09:08:58.568Z,101492.75
2022-10-12T09:11:38.733Z,101492.38
2022-10-12T09:14:15.900Z,101500.19
2022-10-12T09:16:47.346Z,101497.84
2022-10-12T09:19:21.313Z,101502.31
2022-10-12T09:21:50.250Z,101496.50
2022-10-12T09:24:25.443Z,101490.38
2022-10-12T09:26:59.253Z,101499.69
2022-10-12T09:29:31.269Z,101490.28
2022-10-12T09:32:17.201Z,101495.09
2022-10-12T09:34:45.545Z,101497.56
2022-10-12T09:37:19.540Z,101495.28
2022-10-12T09:39:47.524Z,101497.44
2022-10-12T09:42:15.929Z,101493.03
2022-10-12T09:45:11.238Z,101488.53
2022-10-12T09:47:41.276Z,101497.41
2022-10-12T09:50:08.778Z,101492.91
2022-10-12T09:52:36.499Z,101495.91
2022-10-12T09:55:14.460Z,101486.66
2022-10-12T09:57:44.520Z,101486.72
2022-10-12T10:00:31.775Z,101488.47
2022-10-12T10:03:00.900Z,101486.50
2022-10-12T10:05:36.644Z,101494.00
2022-10-12T10:08:21.771Z,101487.87
2022-10-12T10:10:55.282Z,101490.94
2022-10-12T10:13:26.779Z,101491.69
2022-10-12T10:16:10.531Z,101496.81
2022-10-12T10:18:48.939Z,101496.47
2022-10-12T10:21:26.355Z,101495.50
2022-10-12T10:24:26.648Z,101495.44
2022-10-12T10:26:58.570Z,101493.03
2022-10-12T10:29:29.281Z,101492.88
2022-10-12T10:32:24.430Z,101496.50
2022-10-12T10:35:12.459Z,101482.69
2022-10-12T10:37:54.375Z,101480.97
2022-10-12T10:40:30.904Z,101484.59
2022-10-12T10:43:06.797Z,101486.97
2022-10-12T10:45:49.636Z,101478.84
2022-10-12T10:48:22.514Z,101477.66
2022-10-12T10:50:57.096Z,101482.81
2022-10-12T10:53:27.104Z,101473.00
2022-10-12T10:56:02.364Z,101470.72
2022-10-12T10:58:43.629Z,101461.06
2022-10-12T11:01:21.492Z,101466.06
2022-10-12T11:04:03.597Z,101459.25
2022-10-12T11:06:38.351Z,101456.28
2022-10-12T11:09:30.000Z,101468.25
2022-10-12T11:12:03.468Z,101460.72
2022-10-12T11:14:40.283Z,101459.91
2022-10-12T11:17:19.422Z,101455.41
2022-10-12T11:19:57.369Z,101467.16
2022-10-12T11:22:40.116Z,101461.53
2022-10-12T11:25:18.384Z,101455.75
2022-10-12T11:27:50.041Z,101460.87
2022-10-12T11:30:24.167Z,101457.13
2022-10-12T11:32:56.319Z,101462.88
2022-10-12T11:35:29.017Z,101469.16
2022-10-12T11:38:03.189Z,101470.06
2022-10-12T11:41:05.598Z,101473.00
